createdAt,value
2019-05-21T00:00:57.818Z,11.60
2019-05-21T00:03:26.320Z,11.60
2019-05-21T00:05:54.846Z,11.50
2019-05-21T00:08:23.314Z,11.50
2019-05-21T00:10:51.819Z,11.60
2019-05-21T00:13:20.351Z,11.50
2019-05-21T00:15:48.809Z,11.50
2019-05-21T00:18:17.314Z,11.50
2019-05-21T00:20:45.780Z,11.50
2019-05-21T00:23:14.240Z,11.60
2019-05-21T00:25:42.744Z,11.60
2019-05-21T00:28:32.081Z,11.50
2019-05-21T00:31:36.820Z,11.50
2019-05-21T00:34:43.915Z,11.50
2019-05-21T00:37:48.593Z,11.50
2019-05-21T00:40:53.779Z,11.50
2019-05-21T00:43:30.962Z,11.60
2019-05-21T00:45:59.432Z,11.70
2019-05-21T00:48:27.886Z,11.60
2019-05-21T00:50:56.388Z,11.60
2019-05-21T00:53:24.923Z,11.60
2019-05-21T00:55:53.389Z,11.60
2019-05-21T00:58:21.877Z,11.50
2019-05-21T01:00:50.350Z,11.50
2019-05-21T01:03:18.809Z,11.60
2019-05-21T01:05:47.323Z,11.70
2019-05-21T01:08:15.791Z,11.60
2019-05-21T01:10:44.248Z,11.60
2019-05-21T01:13:12.773Z,11.50
2019-05-21T01:15:41.233Z,11.50
2019-05-21T01:18:09.762Z,11.50
2019-05-21T01:20:38.264Z,11.50
2019-05-21T01:23:06.734Z,11.50
2019-05-21T01:25:35.187Z,11.60
2019-05-21T01:28:03.685Z,11.50
2019-05-21T01:30:32.151Z,11.50
2019-05-21T01:33:00.622Z,11.60
2019-05-21T01:35:29.129Z,11.50
2019-05-21T01:37:57.587Z,11.60
2019-05-21T01:40:26.050Z,11.50
2019-05-21T01:42:54.552Z,11.60
2019-05-21T01:45:23.013Z,11.50
2019-05-21T01:47:51.472Z,11.60
2019-05-21T01:50:20.008Z,11.50
2019-05-21T01:52:48.532Z,11.50
2019-05-21T01:55:17.005Z,11.40
2019-05-21T01:57:45.491Z,11.40
2019-05-21T02:00:14.201Z,11.40
2019-05-21T02:02:42.740Z,11.30
2019-05-21T02:05:11.390Z,11.30
2019-05-21T02:07:39.841Z,11.30
2019-05-21T02:10:08.750Z,11.20
2019-05-21T02:12:37.252Z,11.30
2019-05-21T02:15:07.108Z,11.20
2019-05-21T02:17:35.572Z,11.20
2019-05-21T02:20:05.716Z,11.20
2019-05-21T02:22:34.186Z,11.20
2019-05-21T02:25:02.790Z,11.10
2019-05-21T02:27:31.291Z,11.20
2019-05-21T02:29:59.761Z,11.20
2019-05-21T02:32:28.226Z,11.10
2019-05-21T02:34:56.724Z,11.20
2019-05-21T02:37:25.183Z,11.20
2019-05-21T02:39:53.643Z,11.20
2019-05-21T02:42:22.151Z,11.20
2019-05-21T02:44:53.889Z,11.20
2019-05-21T02:47:21.034Z,11.10
2019-05-21T02:49:49.613Z,11.10
2019-05-21T02:52:18.079Z,11.10
2019-05-21T02:54:46.576Z,11.10
2019-05-21T02:57:15.143Z,11.10
2019-05-21T02:59:45.253Z,11.10
2019-05-21T03:02:33.429Z,11.20
2019-05-21T03:05:01.894Z,11.20
2019-05-21T03:07:30.526Z,11.20
2019-05-21T03:09:59.014Z,11.20
2019-05-21T03:12:27.540Z,11.20
2019-05-21T03:14:56.015Z,11.10
2019-05-21T03:17:24.605Z,11.10
2019-05-21T03:19:53.128Z,11.10
2019-05-21T03:22:21.584Z,11.00
2019-05-21T03:24:50.151Z,11.00
2019-05-21T03:27:18.617Z,11.00
2019-05-21T03:29:47.349Z,11.10
2019-05-21T03:32:15.850Z,11.00
2019-05-21T03:34:44.313Z,11.00
2019-05-21T03:37:12.860Z,11.00
2019-05-21T03:39:41.425Z,10.90
2019-05-21T03:42:09.905Z,10.90
2019-05-21T03:44:56.319Z,10.90
2019-05-21T03:47:09.474Z,10.90
2019-05-21T03:49:37.960Z,10.90
2019-05-21T03:52:06.481Z,10.90
2019-05-21T03:54:35.216Z,10.90
2019-05-21T03:57:03.933Z,10.90
2019-05-21T03:59:32.461Z,10.90
2019-05-21T04:02:01.024Z,10.90
2019-05-21T04:04:29.490Z,10.90
2019-05-21T04:06:57.951Z,10.90
2019-05-21T04:09:26.452Z,10.90
2019-05-21T04:11:54.907Z,10.90
2019-05-21T04:14:31.296Z,11.00
2019-05-21T04:17:02.323Z,11.00
2019-05-21T04:19:35.489Z,11.00
2019-05-21T04:22:05.564Z,11.00
2019-05-21T04:24:34.018Z,10.90
2019-05-21T04:27:02.518Z,11.00
2019-05-21T04:29:30.996Z,10.90
2019-05-21T04:31:59.462Z,10.90
2019-05-21T04:34:28.013Z,10.90
2019-05-21T04:37:09.863Z,10.90
2019-05-21T04:39:26.781Z,10.90
2019-05-21T04:41:55.364Z,10.90
2019-05-21T04:44:23.827Z,11.00
2019-05-21T04:46:52.280Z,11.00
2019-05-21T04:49:20.793Z,11.00
2019-05-21T04:51:49.479Z,11.00
2019-05-21T04:54:17.959Z,11.00
2019-05-21T04:56:46.591Z,11.00
2019-05-21T04:59:15.046Z,11.00
2019-05-21T05:01:43.505Z,10.90
2019-05-21T05:04:12.012Z,10.90
2019-05-21T05:06:40.472Z,11.00
2019-05-21T05:09:08.945Z,11.00
2019-05-21T05:11:37.702Z,11.10
2019-05-21T05:14:06.232Z,11.10
2019-05-21T05:16:34.700Z,11.10
2019-05-21T05:19:03.207Z,11.10
2019-05-21T05:21:31.664Z,11.10
2019-05-21T05:24:00.133Z,11.10
2019-05-21T05:26:28.636Z,11.10
2019-05-21T05:28:57.117Z,11.20
2019-05-21T05:31:25.587Z,11.10
2019-05-21T05:33:54.167Z,11.20
2019-05-21T05:36:22.621Z,11.20
2019-05-21T05:38:51.155Z,11.30
2019-05-21T05:41:19.666Z,11.30
2019-05-21T05:43:48.139Z,11.30
2019-05-21T05:46:16.608Z,11.40
2019-05-21T05:48:46.825Z,11.40
2019-05-21T05:51:15.319Z,11.40
2019-05-21T05:53:59.184Z,11.50
2019-05-21T05:56:28.993Z,11.50
2019-05-21T05:58:57.598Z,11.50
2019-05-21T06:01:27.237Z,11.60
2019-05-21T06:03:55.764Z,11.70
2019-05-21T06:06:24.231Z,11.60
2019-05-21T06:08:52.735Z,11.70
2019-05-21T06:11:21.200Z,11.70
2019-05-21T06:13:49.650Z,11.60
2019-05-21T06:16:18.159Z,11.60
2019-05-21T06:18:46.767Z,11.70
2019-05-21T06:21:15.225Z,11.80
2019-05-21T06:23:44.039Z,11.80
2019-05-21T06:26:12.500Z,11.80
2019-05-21T06:28:41.033Z,11.90
2019-05-21T06:31:09.612Z,11.90
2019-05-21T06:33:38.088Z,12.10
2019-05-21T06:36:06.698Z,12.10
2019-05-21T06:38:35.189Z,12.20
2019-05-21T06:41:03.818Z,12.10
2019-05-21T06:43:32.333Z,12.10
2019-05-21T06:46:00.837Z,12.10
2019-05-21T06:48:29.309Z,12.20
2019-05-21T06:50:57.794Z,12.20
2019-05-21T06:53:26.383Z,12.10
2019-05-21T06:55:54.860Z,12.00
2019-05-21T06:58:23.471Z,12.00
2019-05-21T07:00:51.985Z,12.00
2019-05-21T07:03:20.520Z,12.10
2019-05-21T07:05:58.488Z,12.00
2019-05-21T07:08:33.674Z,12.10
2019-05-21T07:10:49.633Z,12.20
2019-05-21T07:13:18.150Z,12.10
2019-05-21T07:15:46.649Z,12.20
2019-05-21T07:18:15.122Z,12.20
2019-05-21T07:20:43.589Z,12.30
2019-05-21T07:23:12.180Z,12.30
2019-05-21T07:25:40.654Z,12.40
2019-05-21T07:28:09.110Z,12.40
2019-05-21T07:30:37.704Z,12.30
2019-05-21T07:33:06.897Z,12.20
2019-05-21T07:35:35.703Z,12.20
2019-05-21T07:38:04.285Z,12.20
2019-05-21T07:40:32.740Z,12.30
2019-05-21T07:43:01.210Z,12.20
2019-05-21T07:45:29.785Z,12.30
2019-05-21T07:47:58.251Z,12.40
2019-05-21T07:50:26.846Z,12.30
2019-05-21T07:52:55.365Z,12.40
2019-05-21T07:55:23.892Z,12.40
2019-05-21T07:57:52.352Z,12.40
2019-05-21T08:00:21.294Z,12.40
2019-05-21T08:02:49.756Z,12.40
2019-05-21T08:05:18.225Z,12.60
2019-05-21T08:07:46.785Z,12.60
2019-05-21T08:10:16.090Z,12.60
2019-05-21T08:12:44.562Z,12.60
2019-05-21T08:15:13.487Z,12.50
2019-05-21T08:17:42.012Z,12.50
2019-05-21T08:20:11.630Z,12.60
2019-05-21T08:22:40.185Z,12.70
2019-05-21T08:25:09.063Z,12.80
2019-05-21T08:27:37.604Z,12.90
2019-05-21T08:30:06.902Z,12.90
2019-05-21T08:32:35.356Z,13.20
2019-05-21T08:35:05.754Z,13.20
2019-05-21T08:37:34.327Z,13.20
2019-05-21T08:40:03.226Z,13.30
2019-05-21T08:42:31.692Z,13.30
2019-05-21T08:45:00.243Z,13.40
2019-05-21T08:47:28.720Z,13.60
2019-05-21T08:49:57.186Z,13.70
2019-05-21T08:52:25.677Z,13.70
2019-05-21T08:54:56.458Z,14.00
2019-05-21T08:57:24.333Z,13.90
2019-05-21T08:59:52.825Z,14.00
2019-05-21T09:02:21.369Z,14.00
2019-05-21T09:04:49.931Z,13.80
2019-05-21T09:07:18.769Z,14.00
2019-05-21T09:09:50.642Z,14.00
2019-05-21T09:12:17.557Z,14.10
2019-05-21T09:14:46.083Z,14.10
2019-05-21T09:17:14.684Z,14.20
2019-05-21T09:19:43.158Z,14.40
2019-05-21T09:22:11.737Z,14.40
2019-05-21T09:24:40.190Z,14.50
2019-05-21T09:27:08.668Z,14.50
2019-05-21T09:29:37.244Z,14.30
2019-05-21T09:32:05.708Z,14.10
2019-05-21T09:34:48.109Z,14.10
2019-05-21T09:37:18.523Z,14.40
2019-05-21T09:39:34.791Z,14.40
2019-05-21T09:42:03.422Z,14.40
2019-05-21T09:44:31.983Z,14.50
2019-05-21T09:47:00.463Z,14.50
2019-05-21T09:49:29.052Z,15.00
2019-05-21T09:51:57.551Z,14.90
2019-05-21T09:54:26.090Z,14.80
2019-05-21T09:56:54.557Z,14.90
2019-05-21T09:59:24.692Z,14.70
2019-05-21T10:01:57.583Z,14.90
2019-05-21T10:04:26.140Z,15.30
2019-05-21T10:06:54.733Z,15.40
2019-05-21T10:09:23.260Z,15.30
2019-05-21T10:11:51.724Z,15.70
2019-05-21T10:14:20.236Z,16.20
2019-05-21T10:16:48.774Z,16.40
2019-05-21T10:19:17.244Z,15.80
2019-05-21T10:21:45.767Z,16.30
2019-05-21T10:24:14.227Z,16.20
2019-05-21T10:26:42.851Z,16.00
2019-05-21T10:29:11.349Z,15.50
2019-05-21T10:31:39.970Z,15.50
2019-05-21T10:34:08.490Z,15.90
2019-05-21T10:36:36.991Z,16.40
2019-05-21T10:39:07.191Z,16.20
2019-05-21T10:41:35.648Z,16.10
2019-05-21T10:44:04.786Z,16.30
2019-05-21T10:46:33.323Z,15.70
2019-05-21T10:49:01.863Z,15.70
2019-05-21T10:51:30.383Z,15.60
2019-05-21T10:53:58.963Z,15.30
2019-05-21T10:56:27.477Z,15.50
2019-05-21T10:58:55.973Z,16.00
2019-05-21T11:01:29.375Z,16.20
2019-05-21T11:04:08.744Z,16.40
2019-05-21T11:06:37.555Z,16.10
2019-05-21T11:09:09.595Z,15.90
2019-05-21T11:11:38.243Z,15.90
2019-05-21T11:14:06.882Z,16.00
2019-05-21T11:16:35.567Z,16.50
2019-05-21T11:19:04.171Z,16.20
2019-05-21T11:21:32.643Z,16.30
2019-05-21T11:24:01.273Z,16.30
2019-05-21T11:26:29.925Z,16.30
2019-05-21T11:28:58.389Z,16.30
2019-05-21T11:31:26.854Z,16.30
2019-05-21T11:33:55.525Z,16.70
2019-05-21T11:36:24.058Z,16.90
2019-05-21T11:38:52.521Z,17.30
2019-05-21T11:41:21.024Z,18.00
2019-05-21T11:43:49.645Z,17.90
2019-05-21T11:46:18.087Z,17.60
2019-05-21T11:48:46.607Z,17.80
2019-05-21T11:51:15.115Z,17.30
2019-05-21T11:53:43.603Z,18.00
2019-05-21T11:56:13.685Z,17.70
2019-05-21T11:58:42.222Z,17.50
2019-05-21T12:01:10.744Z,18.10
2019-05-21T12:03:39.222Z,17.90
2019-05-21T12:06:07.691Z,18.30
2019-05-21T12:08:36.250Z,18.50
2019-05-21T12:11:05.032Z,18.40
2019-05-21T12:13:33.547Z,18.10
2019-05-21T12:16:02.172Z,18.50
2019-05-21T12:18:30.669Z,18.60
2019-05-21T12:20:59.127Z,18.80
2019-05-21T12:23:27.634Z,18.60
2019-05-21T12:25:56.174Z,18.70
2019-05-21T12:28:24.727Z,18.20
2019-05-21T12:30:53.249Z,18.30
2019-05-21T12:33:21.740Z,18.80
2019-05-21T12:35:50.271Z,18.80
2019-05-21T12:38:18.730Z,18.60
2019-05-21T12:40:48.010Z,18.60
2019-05-21T12:43:16.471Z,18.70
2019-05-21T12:45:44.994Z,19.00
2019-05-21T12:48:13.498Z,18.90
2019-05-21T12:50:41.971Z,18.80
2019-05-21T12:53:10.504Z,19.00
2019-05-21T12:55:39.067Z,19.00
2019-05-21T12:58:07.528Z,18.80
2019-05-21T13:00:36.629Z,18.70
2019-05-21T13:03:05.259Z,18.80
2019-05-21T13:05:33.875Z,18.70
2019-05-21T13:08:02.422Z,18.90
2019-05-21T13:10:31.024Z,19.20
2019-05-21T13:12:59.523Z,19.40
2019-05-21T13:15:27.985Z,19.30
2019-05-21T13:17:56.477Z,19.40
2019-05-21T13:20:25.106Z,18.80
2019-05-21T13:22:53.651Z,19.20
2019-05-21T13:25:22.282Z,18.90
2019-05-21T13:27:50.744Z,18.80
2019-05-21T13:30:19.613Z,19.10
2019-05-21T13:32:48.175Z,18.50
2019-05-21T13:35:16.702Z,18.30
2019-05-21T13:37:45.153Z,18.50
2019-05-21T13:40:14.189Z,18.50
2019-05-21T13:42:42.648Z,18.30
2019-05-21T13:45:11.508Z,18.20
2019-05-21T13:47:40.074Z,18.40
2019-05-21T13:50:08.938Z,18.30
2019-05-21T13:52:37.393Z,18.40
2019-05-21T13:55:09.202Z,18.90
2019-05-21T13:57:37.733Z,18.60
2019-05-21T14:00:10.070Z,18.30
2019-05-21T14:02:39.103Z,18.10
2019-05-21T14:05:07.907Z,18.20
2019-05-21T14:07:36.484Z,17.90
2019-05-21T14:10:19.170Z,17.90
2019-05-21T14:12:37.159Z,17.70
2019-05-21T14:15:06.646Z,17.60
2019-05-21T14:17:35.155Z,17.60
2019-05-21T14:20:08.047Z,17.70
2019-05-21T14:22:36.781Z,17.80
2019-05-21T14:25:08.605Z,17.50
2019-05-21T14:27:44.241Z,17.60
2019-05-21T14:30:09.363Z,17.30
2019-05-21T14:32:38.105Z,17.40
2019-05-21T14:35:07.099Z,17.60
2019-05-21T14:37:35.694Z,17.50
2019-05-21T14:40:08.294Z,17.70
2019-05-21T14:42:36.752Z,17.60
2019-05-21T14:45:08.525Z,17.60
2019-05-21T14:47:37.092Z,17.60
2019-05-21T14:50:08.236Z,17.80
2019-05-21T14:52:36.768Z,17.70
2019-05-21T14:55:07.163Z,17.70
2019-05-21T14:57:35.611Z,17.90
2019-05-21T15:00:19.294Z,18.10
2019-05-21T15:02:48.470Z,17.80
2019-05-21T15:05:16.968Z,17.50
2019-05-21T15:07:49.498Z,17.40
2019-05-21T15:10:16.151Z,17.70
2019-05-21T15:12:44.662Z,17.60
2019-05-21T15:15:14.061Z,17.50
2019-05-21T15:17:42.917Z,17.60
2019-05-21T15:20:17.605Z,17.60
2019-05-21T15:22:46.207Z,17.60
2019-05-21T15:25:14.697Z,17.40
2019-05-21T15:27:43.147Z,17.50
2019-05-21T15:30:12.200Z,17.30
2019-05-21T15:32:40.647Z,17.40
2019-05-21T15:35:09.254Z,17.50
2019-05-21T15:37:37.749Z,17.50
2019-05-21T15:40:07.546Z,17.60
2019-05-21T15:42:36.009Z,17.40
2019-05-21T15:45:05.651Z,17.10
2019-05-21T15:47:34.183Z,17.20
2019-05-21T15:50:02.642Z,17.00
2019-05-21T15:52:31.135Z,17.10
2019-05-21T15:54:59.653Z,16.90
2019-05-21T15:57:28.099Z,16.90
2019-05-21T15:59:56.621Z,17.10
2019-05-21T16:02:25.085Z,17.30
2019-05-21T16:04:53.564Z,17.10
2019-05-21T16:07:22.055Z,17.30
2019-05-21T16:09:50.516Z,16.90
2019-05-21T16:12:19.043Z,17.10
2019-05-21T16:14:47.518Z,17.00
2019-05-21T16:17:15.976Z,17.20
2019-05-21T16:19:44.430Z,17.00
2019-05-21T16:22:12.925Z,16.70
2019-05-21T16:24:41.372Z,16.60
2019-05-21T16:27:09.820Z,16.50
2019-05-21T16:29:38.317Z,16.70
2019-05-21T16:32:06.937Z,16.80
2019-05-21T16:34:35.389Z,16.70
2019-05-21T16:37:03.902Z,16.90
2019-05-21T16:39:33.067Z,16.90
2019-05-21T16:42:01.800Z,16.60
2019-05-21T16:44:30.282Z,16.50
2019-05-21T16:46:58.761Z,16.40
2019-05-21T16:49:27.387Z,16.40
2019-05-21T16:51:55.875Z,16.50
2019-05-21T16:54:24.331Z,16.80
2019-05-21T16:56:52.854Z,16.70
2019-05-21T16:59:21.414Z,16.60
2019-05-21T17:01:49.874Z,16.40
2019-05-21T17:04:18.326Z,16.30
2019-05-21T17:06:46.909Z,16.30
2019-05-21T17:09:15.431Z,16.00
2019-05-21T17:11:57.639Z,16.10
2019-05-21T17:14:14.171Z,16.00
2019-05-21T17:16:42.628Z,16.00
2019-05-21T17:19:11.091Z,16.10
2019-05-21T17:21:39.570Z,16.00
2019-05-21T17:24:08.094Z,15.80
2019-05-21T17:26:36.614Z,15.90
2019-05-21T17:29:05.330Z,15.70
2019-05-21T17:31:33.801Z,15.50
2019-05-21T17:34:02.337Z,15.50
2019-05-21T17:36:30.903Z,15.40
2019-05-21T17:38:59.523Z,15.40
2019-05-21T17:41:27.987Z,15.10
2019-05-21T17:43:56.565Z,15.40
2019-05-21T17:46:25.192Z,15.30
2019-05-21T17:48:53.708Z,15.20
2019-05-21T17:51:22.192Z,15.20
2019-05-21T17:53:50.657Z,15.10
2019-05-21T17:56:19.110Z,15.20
2019-05-21T17:58:47.681Z,15.30
2019-05-21T18:01:17.278Z,15.00
2019-05-21T18:03:46.247Z,14.80
2019-05-21T18:06:16.255Z,14.80
2019-05-21T18:08:44.900Z,14.80
2019-05-21T18:11:15.275Z,14.80
2019-05-21T18:13:47.503Z,14.60
2019-05-21T18:16:15.116Z,14.50
2019-05-21T18:18:44.812Z,14.50
2019-05-21T18:21:13.489Z,14.60
2019-05-21T18:23:42.077Z,14.60
2019-05-21T18:26:10.811Z,14.40
2019-05-21T18:28:39.375Z,14.40
2019-05-21T18:31:07.837Z,14.40
2019-05-21T18:33:36.279Z,14.20
2019-05-21T18:36:04.795Z,14.30
2019-05-21T18:38:33.709Z,14.20
2019-05-21T18:41:02.249Z,14.10
2019-05-21T18:43:30.755Z,14.00
2019-05-21T18:45:59.362Z,14.10
2019-05-21T18:48:27.826Z,14.00
2019-05-21T18:50:56.396Z,14.10
2019-05-21T18:53:24.857Z,14.00
2019-05-21T18:55:53.315Z,13.90
2019-05-21T18:58:21.803Z,13.90
2019-05-21T19:00:50.331Z,13.80
2019-05-21T19:03:25.113Z,13.70
2019-05-21T19:05:49.051Z,13.60
2019-05-21T19:08:17.518Z,13.60
2019-05-21T19:10:45.980Z,13.60
2019-05-21T19:13:33.896Z,13.60
2019-05-21T19:16:02.441Z,13.60
2019-05-21T19:18:31.048Z,13.50
2019-05-21T19:20:59.561Z,13.50
2019-05-21T19:23:28.293Z,13.60
2019-05-21T19:25:56.750Z,13.70
2019-05-21T19:28:25.322Z,13.60
2019-05-21T19:31:13.203Z,13.50
2019-05-21T19:33:41.692Z,13.30
2019-05-21T19:36:10.162Z,13.40
2019-05-21T19:38:38.621Z,13.50
2019-05-21T19:41:08.306Z,13.40
2019-05-21T19:43:56.194Z,13.20
2019-05-21T19:46:24.693Z,13.20
2019-05-21T19:48:53.163Z,13.20
2019-05-21T19:51:21.627Z,13.20
2019-05-21T19:53:50.148Z,13.30
2019-05-21T19:56:18.689Z,13.20
2019-05-21T19:58:47.215Z,13.20
2019-05-21T20:01:15.885Z,13.10
2019-05-21T20:03:44.430Z,13.10
2019-05-21T20:06:15.338Z,13.10
2019-05-21T20:08:44.512Z,13.00
2019-05-21T20:11:14.489Z,12.90
2019-05-21T20:13:43.118Z,12.90
2019-05-21T20:16:11.642Z,12.80
2019-05-21T20:18:40.835Z,13.00
2019-05-21T20:21:09.475Z,12.80
2019-05-21T20:23:38.427Z,12.90
2019-05-21T20:26:10.560Z,12.80
2019-05-21T20:28:39.461Z,12.80
2019-05-21T20:31:07.954Z,12.70
2019-05-21T20:33:38.087Z,12.70
2019-05-21T20:36:08.157Z,12.70
2019-05-21T20:38:37.785Z,12.70
2019-05-21T20:41:06.489Z,12.70
2019-05-21T20:43:35.213Z,12.60
2019-05-21T20:46:04.254Z,12.70
2019-05-21T20:48:35.496Z,12.70
2019-05-21T20:51:04.254Z,12.60
2019-05-21T20:53:33.725Z,12.60
2019-05-21T20:56:02.323Z,12.50
2019-05-21T20:58:31.468Z,12.50
2019-05-21T21:01:01.123Z,12.50
2019-05-21T21:03:30.495Z,12.50
2019-05-21T21:05:59.022Z,12.40
2019-05-21T21:08:28.197Z,12.40
2019-05-21T21:10:56.813Z,12.40
2019-05-21T21:13:25.913Z,12.30
2019-05-21T21:15:54.972Z,12.20
2019-05-21T21:18:24.167Z,12.20
2019-05-21T21:20:52.880Z,12.10
2019-05-21T21:23:22.747Z,12.20
2019-05-21T21:25:51.266Z,12.10
2019-05-21T21:28:19.736Z,12.00
2019-05-21T21:30:48.836Z,12.00
2019-05-21T21:33:17.470Z,12.00
2019-05-21T21:35:46.210Z,12.00
2019-05-21T21:38:15.040Z,12.00
2019-05-21T21:40:43.673Z,12.00
2019-05-21T21:43:13.006Z,11.90
2019-05-21T21:45:42.421Z,11.90
2019-05-21T21:48:11.527Z,11.80
2019-05-21T21:50:41.905Z,11.80
2019-05-21T21:53:10.845Z,11.90
2019-05-21T21:55:39.310Z,11.90
2019-05-21T21:58:08.037Z,11.90
2019-05-21T22:01:03.808Z,11.90
2019-05-21T22:03:34.751Z,11.90
2019-05-21T22:06:06.656Z,11.80
2019-05-21T22:08:35.325Z,11.80
2019-05-21T22:11:04.988Z,11.80
2019-05-21T22:13:33.889Z,11.80
2019-05-21T22:16:02.686Z,11.90
2019-05-21T22:18:31.812Z,11.80
2019-05-21T22:21:01.955Z,11.90
2019-05-21T22:23:31.001Z,11.90
2019-05-21T22:25:59.593Z,11.90
2019-05-21T22:28:28.396Z,11.80
2019-05-21T22:30:57.144Z,11.90
2019-05-21T22:33:25.948Z,11.90
2019-05-21T22:35:54.484Z,12.00
2019-05-21T22:38:23.527Z,12.00
2019-05-21T22:40:52.153Z,11.90
2019-05-21T22:43:20.612Z,11.90
2019-05-21T22:45:49.192Z,11.90
2019-05-21T22:48:17.720Z,11.90
2019-05-21T22:50:46.191Z,12.00
2019-05-21T22:53:14.845Z,12.00
2019-05-21T22:55:43.306Z,11.90
2019-05-21T22:58:11.860Z,12.00
2019-05-21T23:00:41.909Z,11.90
2019-05-21T23:03:10.543Z,11.90
2019-05-21T23:05:39.269Z,11.90
2019-05-21T23:08:08.095Z,11.70
2019-05-21T23:10:37.174Z,11.90
2019-05-21T23:13:05.768Z,11.90
2019-05-21T23:15:34.604Z,11.90
2019-05-21T23:18:03.515Z,11.80
2019-05-21T23:20:33.999Z,11.80
2019-05-21T23:23:03.722Z,11.80
2019-05-21T23:25:32.515Z,11.80
2019-05-21T23:28:01.146Z,11.80
2019-05-21T23:30:29.950Z,12.00
2019-05-21T23:32:58.956Z,11.90
2019-05-21T23:35:28.524Z,11.90
2019-05-21T23:37:57.281Z,11.70
2019-05-21T23:40:26.117Z,11.70
2019-05-21T23:42:55.025Z,11.80
2019-05-21T23:45:23.579Z,11.80
2019-05-21T23:47:52.848Z,11.90
2019-05-21T23:50:22.114Z,11.80
2019-05-21T23:52:52.682Z,11.80
2019-05-21T23:55:21.209Z,11.80
2019-05-21T23:57:49.749Z,11.80
